createdAt,value
2023-03-18T00:02:18.648Z,3.57
2023-03-18T00:04:46.718Z,2.60
2023-03-18T00:07:14.534Z,3.17
2023-03-18T00:09:42.492Z,3.57
2023-03-18T00:12:10.683Z,3.23
2023-03-18T00:14:38.822Z,3.20
2023-03-18T00:17:06.754Z,3.73
2023-03-18T00:19:34.181Z,3.50
2023-03-18T00:22:01.578Z,4.07
2023-03-18T00:24:29.096Z,3.83
2023-03-18T00:26:57.200Z,3.90
2023-03-18T00:29:25.255Z,4.33
2023-03-18T00:31:52.732Z,3.50
2023-03-18T00:34:21.073Z,4.70
2023-03-18T00:36:51.143Z,3.93
2023-03-18T00:39:21.677Z,6.43
2023-03-18T00:41:49.051Z,5.97
2023-03-18T00:44:16.365Z,4.17
2023-03-18T00:46:44.868Z,4.53
2023-03-18T00:49:12.504Z,4.20
2023-03-18T00:51:42.147Z,4.70
2023-03-18T00:54:12.471Z,5.80
2023-03-18T00:56:40.261Z,5.20
2023-03-18T00:59:08.768Z,5.17
2023-03-18T01:01:37.250Z,5.37
2023-03-18T01:04:04.860Z,4.93
2023-03-18T01:06:34.145Z,5.13
2023-03-18T01:09:02.564Z,5.93
2023-03-18T01:11:30.123Z,6.13
2023-03-18T01:13:59.387Z,6.23
2023-03-18T01:16:26.874Z,5.13
2023-03-18T01:18:54.316Z,5.67
2023-03-18T01:21:22.510Z,5.80
2023-03-18T01:23:54.632Z,6.67
2023-03-18T01:26:23.085Z,5.60
2023-03-18T01:28:50.521Z,5.97
2023-03-18T01:31:19.577Z,5.70
2023-03-18T01:33:47.852Z,5.83
2023-03-18T01:36:15.693Z,6.57
2023-03-18T01:38:44.787Z,6.97
2023-03-18T01:41:16.773Z,5.70
2023-03-18T01:43:44.195Z,6.50
2023-03-18T01:46:31.146Z,6.23
2023-03-18T01:49:00.106Z,8.33
2023-03-18T01:51:31.234Z,6.23
2023-03-18T01:54:00.807Z,6.90
2023-03-18T01:56:28.258Z,6.87
2023-03-18T01:58:57.402Z,6.07
2023-03-18T02:01:32.013Z,6.03
2023-03-18T02:04:03.568Z,9.00
2023-03-18T02:06:31.004Z,8.13
2023-03-18T02:09:01.178Z,6.37
2023-03-18T02:11:32.139Z,7.20
2023-03-18T02:14:00.932Z,7.67
2023-03-18T02:16:34.179Z,6.83
2023-03-18T02:19:25.315Z,6.70
2023-03-18T02:21:58.819Z,6.60
2023-03-18T02:24:45.997Z,6.70
2023-03-18T02:27:21.085Z,6.93
2023-03-18T02:29:49.289Z,7.03
2023-03-18T02:32:21.411Z,6.40
2023-03-18T02:34:49.778Z,7.23
2023-03-18T02:37:17.178Z,7.43
2023-03-18T02:39:44.641Z,7.40
2023-03-18T02:42:14.254Z,6.90
2023-03-18T02:44:48.195Z,7.00
2023-03-18T02:47:42.095Z,6.93
2023-03-18T02:50:09.607Z,7.23
2023-03-18T02:52:37.070Z,6.93
2023-03-18T02:55:04.722Z,6.40
2023-03-18T02:57:35.341Z,6.60
2023-03-18T03:00:02.665Z,8.27
2023-03-18T03:02:30.188Z,6.73
2023-03-18T03:04:58.286Z,6.50
2023-03-18T03:07:29.014Z,7.00
2023-03-18T03:09:58.491Z,7.40
2023-03-18T03:12:26.360Z,7.07
2023-03-18T03:14:57.621Z,7.07
2023-03-18T03:17:26.913Z,6.47
2023-03-18T03:19:55.247Z,5.83
2023-03-18T03:22:23.070Z,7.00
2023-03-18T03:24:50.422Z,6.73
2023-03-18T03:27:17.780Z,7.20
2023-03-18T03:29:45.574Z,6.10
2023-03-18T03:32:12.876Z,5.73
2023-03-18T03:34:40.195Z,6.03
2023-03-18T03:37:08.067Z,6.67
2023-03-18T03:39:35.395Z,8.07
2023-03-18T03:42:02.744Z,5.67
2023-03-18T03:44:30.252Z,6.07
2023-03-18T03:46:57.864Z,6.77
2023-03-18T03:49:25.480Z,6.23
2023-03-18T03:51:52.841Z,6.20
2023-03-18T03:54:22.213Z,5.87
2023-03-18T03:56:49.555Z,6.90
2023-03-18T03:59:16.937Z,5.80
2023-03-18T04:02:03.192Z,6.17
2023-03-18T04:04:30.747Z,6.23
2023-03-18T04:06:59.041Z,5.77
2023-03-18T04:09:27.111Z,6.80
2023-03-18T04:11:54.735Z,5.30
2023-03-18T04:14:22.458Z,6.00
2023-03-18T04:16:49.995Z,5.47
2023-03-18T04:19:17.695Z,6.13
2023-03-18T04:21:46.080Z,5.60
2023-03-18T04:24:13.388Z,6.60
2023-03-18T04:26:40.755Z,6.23
2023-03-18T04:29:09.500Z,5.90
2023-03-18T04:31:37.335Z,6.13
2023-03-18T04:34:04.859Z,5.90
2023-03-18T04:36:32.572Z,5.77
2023-03-18T04:39:00.119Z,5.53
2023-03-18T04:41:27.702Z,6.53
2023-03-18T04:43:58.400Z,6.50
2023-03-18T04:46:34.172Z,5.90
2023-03-18T04:49:02.097Z,6.07
2023-03-18T04:51:30.067Z,7.83
2023-03-18T04:53:57.841Z,6.00
2023-03-18T04:56:29.800Z,6.97
2023-03-18T04:58:58.069Z,7.70
2023-03-18T05:01:30.333Z,8.30
2023-03-18T05:03:58.826Z,7.23
2023-03-18T05:06:34.259Z,7.23
2023-03-18T05:09:07.459Z,7.40
2023-03-18T05:11:35.911Z,6.93
2023-03-18T05:14:13.760Z,7.87
2023-03-18T05:16:45.698Z,6.77
2023-03-18T05:19:14.611Z,6.33
2023-03-18T05:21:49.744Z,6.27
2023-03-18T05:24:18.282Z,6.67
2023-03-18T05:26:46.444Z,5.77
2023-03-18T05:29:14.522Z,6.27
2023-03-18T05:31:54.479Z,7.90
2023-03-18T05:34:22.413Z,6.53
2023-03-18T05:36:49.788Z,6.37
2023-03-18T05:39:17.782Z,6.70
2023-03-18T05:41:45.333Z,6.33
2023-03-18T05:44:16.904Z,6.50
2023-03-18T05:46:44.444Z,6.27
2023-03-18T05:49:17.299Z,5.60
2023-03-18T05:52:11.620Z,6.70
2023-03-18T05:54:44.702Z,5.60
2023-03-18T05:57:16.417Z,6.63
2023-03-18T05:59:45.313Z,5.83
2023-03-18T06:02:13.186Z,6.47
2023-03-18T06:04:41.417Z,5.03
2023-03-18T06:07:09.371Z,6.88
2023-03-18T06:09:36.878Z,6.57
2023-03-18T06:12:05.499Z,5.90
2023-03-18T06:14:32.902Z,6.03
2023-03-18T06:17:02.526Z,6.23
2023-03-18T06:19:31.816Z,5.87
2023-03-18T06:21:59.427Z,6.07
2023-03-18T06:24:27.221Z,5.57
2023-03-18T06:26:56.092Z,4.50
2023-03-18T06:29:23.760Z,5.83
2023-03-18T06:31:52.588Z,6.70
2023-03-18T06:34:24.830Z,5.50
2023-03-18T06:36:52.356Z,5.83
2023-03-18T06:39:20.700Z,6.83
2023-03-18T06:41:48.247Z,6.07
2023-03-18T06:44:29.901Z,6.00
2023-03-18T06:47:02.732Z,5.23
2023-03-18T06:49:33.647Z,5.70
2023-03-18T06:52:09.930Z,5.50
2023-03-18T06:54:38.261Z,5.00
2023-03-18T06:57:06.425Z,4.73
2023-03-18T06:59:33.980Z,5.77
2023-03-18T07:02:03.296Z,5.27
2023-03-18T07:04:30.914Z,5.40
2023-03-18T07:06:58.243Z,5.40
2023-03-18T07:09:26.545Z,5.13
2023-03-18T07:11:56.966Z,4.93
2023-03-18T07:14:25.534Z,5.30
2023-03-18T07:16:53.164Z,4.73
2023-03-18T07:19:20.481Z,4.90
2023-03-18T07:21:47.815Z,5.43
2023-03-18T07:24:15.161Z,5.63
2023-03-18T07:26:42.521Z,6.17
2023-03-18T07:29:10.534Z,5.67
2023-03-18T07:31:38.969Z,4.93
2023-03-18T07:34:06.580Z,5.27
2023-03-18T07:36:33.869Z,5.17
2023-03-18T07:39:02.151Z,5.30
2023-03-18T07:41:30.090Z,5.33
2023-03-18T07:43:57.396Z,4.63
2023-03-18T07:46:25.832Z,5.60
2023-03-18T07:48:53.265Z,5.40
2023-03-18T07:51:20.709Z,5.23
2023-03-18T07:53:48.038Z,4.60
2023-03-18T07:56:15.309Z,5.27
2023-03-18T07:58:43.114Z,4.70
2023-03-18T08:01:10.505Z,4.63
2023-03-18T08:03:37.828Z,4.93
2023-03-18T08:06:05.636Z,5.37
2023-03-18T08:08:33.174Z,4.13
2023-03-18T08:11:02.362Z,4.60
2023-03-18T08:13:29.724Z,4.80
2023-03-18T08:15:57.366Z,4.87
2023-03-18T08:18:24.768Z,5.13
2023-03-18T08:20:52.993Z,6.27
2023-03-18T08:23:20.337Z,5.17
2023-03-18T08:25:49.689Z,5.07
2023-03-18T08:28:17.530Z,4.83
2023-03-18T08:30:46.823Z,6.07
2023-03-18T08:33:14.557Z,6.47
2023-03-18T08:35:42.722Z,5.13
2023-03-18T08:38:10.295Z,5.27
2023-03-18T08:40:37.654Z,5.47
2023-03-18T08:43:04.893Z,5.63
2023-03-18T08:45:32.967Z,4.67
2023-03-18T08:48:00.735Z,5.40
2023-03-18T08:50:30.997Z,4.70
2023-03-18T08:52:59.900Z,5.33
2023-03-18T08:55:35.135Z,5.63
2023-03-18T08:58:04.326Z,5.43
2023-03-18T09:00:32.081Z,5.47
2023-03-18T09:02:59.827Z,6.70
2023-03-18T09:05:27.159Z,6.57
2023-03-18T09:07:54.594Z,5.57
2023-03-18T09:10:21.920Z,5.70
2023-03-18T09:12:50.036Z,6.47
2023-03-18T09:15:20.237Z,5.47
2023-03-18T09:18:03.935Z,5.90
2023-03-18T09:20:35.972Z,5.30
2023-03-18T09:23:03.967Z,5.60
2023-03-18T09:25:31.618Z,5.73
2023-03-18T09:27:59.115Z,5.90
2023-03-18T09:30:26.499Z,6.60
2023-03-18T09:32:54.729Z,7.80
2023-03-18T09:35:22.083Z,7.27
2023-03-18T09:37:49.378Z,6.30
2023-03-18T09:40:27.572Z,6.50
2023-03-18T09:43:20.811Z,7.07
2023-03-18T09:46:00.739Z,6.30
2023-03-18T09:48:34.580Z,8.20
2023-03-18T09:51:21.679Z,7.30
2023-03-18T09:53:58.202Z,8.63
2023-03-18T09:56:34.553Z,8.53
2023-03-18T09:59:03.426Z,9.03
2023-03-18T10:01:32.227Z,7.40
2023-03-18T10:04:03.605Z,8.03
2023-03-18T10:06:31.795Z,9.67
2023-03-18T10:09:09.803Z,8.73
2023-03-18T10:11:40.161Z,10.53
2023-03-18T10:14:26.571Z,9.50
2023-03-18T10:17:04.824Z,11.00
2023-03-18T10:19:33.903Z,9.90
2023-03-18T10:22:19.917Z,11.73
2023-03-18T10:25:14.797Z,10.87
2023-03-18T10:27:48.208Z,9.60
2023-03-18T10:30:34.673Z,9.93
2023-03-18T10:33:04.916Z,10.20
2023-03-18T10:35:35.818Z,10.60
2023-03-18T10:38:17.599Z,11.10
2023-03-18T10:40:47.039Z,10.20
2023-03-18T10:43:17.199Z,10.63
2023-03-18T10:45:45.999Z,9.93
2023-03-18T10:48:22.211Z,10.90
2023-03-18T10:51:08.321Z,10.60
2023-03-18T10:53:39.801Z,9.93
2023-03-18T10:56:08.353Z,10.67
2023-03-18T10:58:37.009Z,10.50
2023-03-18T11:01:07.695Z,11.10
2023-03-18T11:03:37.089Z,9.97
2023-03-18T11:06:05.660Z,9.60
2023-03-18T11:08:37.753Z,9.77
2023-03-18T11:11:21.717Z,8.47
2023-03-18T11:13:56.983Z,8.87
2023-03-18T11:16:29.158Z,7.77
2023-03-18T11:18:56.977Z,7.57
2023-03-18T11:21:25.670Z,7.73
2023-03-18T11:23:56.428Z,7.60
2023-03-18T11:26:23.748Z,8.20
2023-03-18T11:28:55.306Z,7.97
2023-03-18T11:31:22.855Z,8.47
2023-03-18T11:33:50.314Z,7.83
2023-03-18T11:36:19.285Z,6.90
2023-03-18T11:38:56.605Z,7.07
2023-03-18T11:41:25.288Z,7.30
2023-03-18T11:44:00.200Z,7.57
2023-03-18T11:46:30.866Z,6.83
2023-03-18T11:48:59.304Z,7.63
2023-03-18T11:51:31.859Z,7.50
2023-03-18T11:54:09.509Z,6.37
2023-03-18T11:56:43.746Z,7.30
2023-03-18T11:59:29.715Z,6.77
2023-03-18T12:02:04.805Z,5.80
2023-03-18T12:04:40.704Z,5.20
2023-03-18T12:07:27.395Z,4.23
2023-03-18T12:10:10.494Z,4.00
2023-03-18T12:12:45.565Z,4.00
2023-03-18T12:15:19.113Z,3.10
2023-03-18T12:18:06.731Z,3.33
2023-03-18T12:20:40.978Z,3.97
2023-03-18T12:23:14.331Z,3.80
2023-03-18T12:26:00.187Z,3.43
2023-03-18T12:28:34.477Z,3.43
2023-03-18T12:31:11.599Z,3.07
2023-03-18T12:33:45.230Z,3.30
2023-03-18T12:36:23.572Z,2.97
2023-03-18T12:38:50.866Z,2.70
2023-03-18T12:41:25.416Z,3.83
2023-03-18T12:44:04.459Z,3.13
2023-03-18T12:46:37.132Z,3.67
2023-03-18T12:49:19.798Z,2.83
2023-03-18T12:51:47.279Z,3.30
2023-03-18T12:54:18.881Z,2.77
2023-03-18T12:56:51.015Z,2.90
2023-03-18T12:59:32.564Z,2.70
2023-03-18T13:02:20.318Z,2.37
2023-03-18T13:04:55.426Z,3.30
2023-03-18T13:07:38.477Z,2.10
2023-03-18T13:10:24.826Z,2.17
2023-03-18T13:12:53.689Z,2.20
2023-03-18T13:15:31.913Z,2.50
2023-03-18T13:18:06.820Z,2.43
2023-03-18T13:20:36.050Z,1.70
2023-03-18T13:23:06.166Z,1.83
2023-03-18T13:25:37.334Z,1.90
2023-03-18T13:28:04.618Z,2.17
2023-03-18T13:30:50.709Z,1.90
2023-03-18T13:33:36.662Z,1.83
2023-03-18T13:36:14.202Z,1.80
2023-03-18T13:39:04.653Z,2.00
2023-03-18T13:41:34.811Z,2.40
2023-03-18T13:44:06.087Z,2.00
2023-03-18T13:46:34.819Z,2.20
2023-03-18T13:49:04.105Z,1.60
2023-03-18T13:51:31.926Z,1.90
2023-03-18T13:54:01.016Z,2.03
2023-03-18T13:56:47.713Z,2.20
2023-03-18T13:59:33.782Z,2.47
2023-03-18T14:02:19.610Z,1.87
2023-03-18T14:04:48.796Z,1.43
2023-03-18T14:07:17.836Z,1.83
2023-03-18T14:09:49.166Z,1.87
2023-03-18T14:12:17.014Z,1.90
2023-03-18T14:14:55.246Z,1.50
2023-03-18T14:17:26.182Z,1.97
2023-03-18T14:19:55.180Z,1.77
2023-03-18T14:22:36.069Z,2.07
2023-03-18T14:25:22.098Z,1.47
2023-03-18T14:27:51.710Z,2.10
2023-03-18T14:30:42.152Z,2.97
2023-03-18T14:33:19.115Z,1.90
2023-03-18T14:35:53.058Z,1.77
2023-03-18T14:38:21.736Z,2.10
2023-03-18T14:40:51.624Z,2.20
2023-03-18T14:43:30.078Z,1.87
2023-03-18T14:45:59.485Z,2.20
2023-03-18T14:48:31.325Z,2.00
2023-03-18T14:51:00.284Z,2.10
2023-03-18T14:53:34.405Z,1.80
2023-03-18T14:56:03.748Z,1.90
2023-03-18T14:58:31.396Z,1.83
2023-03-18T15:01:11.066Z,1.77
2023-03-18T15:03:39.312Z,2.90
2023-03-18T15:06:07.436Z,2.80
2023-03-18T15:08:47.774Z,2.27
2023-03-18T15:11:16.748Z,1.90
2023-03-18T15:13:44.867Z,2.20
2023-03-18T15:16:13.698Z,2.20
2023-03-18T15:18:41.046Z,2.30
2023-03-18T15:21:10.918Z,1.90
2023-03-18T15:23:40.117Z,1.80
2023-03-18T15:26:09.795Z,1.80
2023-03-18T15:28:37.277Z,2.00
2023-03-18T15:31:05.808Z,1.60
2023-03-18T15:33:38.068Z,2.23
2023-03-18T15:36:15.082Z,2.53
2023-03-18T15:38:50.062Z,2.53
2023-03-18T15:41:21.510Z,4.10
2023-03-18T15:43:51.582Z,2.00
2023-03-18T15:46:27.269Z,2.30
2023-03-18T15:48:56.307Z,2.03
2023-03-18T15:51:31.340Z,2.23
2023-03-18T15:54:09.328Z,2.50
2023-03-18T15:56:43.981Z,1.97
2023-03-18T15:59:16.003Z,1.87
2023-03-18T16:01:43.378Z,1.60
2023-03-18T16:04:12.718Z,2.70
2023-03-18T16:06:40.446Z,2.00
2023-03-18T16:09:18.858Z,1.50
2023-03-18T16:11:58.421Z,2.10
2023-03-18T16:14:28.552Z,1.60
2023-03-18T16:16:55.999Z,1.93
2023-03-18T16:19:30.887Z,1.30
2023-03-18T16:21:59.841Z,1.97
2023-03-18T16:24:27.439Z,1.80
2023-03-18T16:26:55.646Z,1.50
2023-03-18T16:29:33.232Z,1.70
2023-03-18T16:32:03.643Z,1.43
2023-03-18T16:34:32.145Z,1.40
2023-03-18T16:37:00.124Z,1.50
2023-03-18T16:39:34.237Z,1.60
2023-03-18T16:42:02.415Z,1.70
2023-03-18T16:44:30.562Z,1.60
2023-03-18T16:46:58.456Z,1.47
2023-03-18T16:49:33.614Z,2.27
2023-03-18T16:52:04.504Z,3.53
2023-03-18T16:54:33.502Z,2.13
2023-03-18T16:57:02.922Z,2.20
2023-03-18T16:59:31.139Z,2.67
2023-03-18T17:01:58.765Z,2.60
2023-03-18T17:04:30.756Z,3.10
2023-03-18T17:06:59.105Z,3.17
2023-03-18T17:09:27.025Z,3.00
2023-03-18T17:11:56.960Z,3.50
2023-03-18T17:14:27.472Z,2.80
2023-03-18T17:16:54.967Z,3.33
2023-03-18T17:19:25.462Z,3.97
2023-03-18T17:21:53.915Z,3.70
2023-03-18T17:24:22.877Z,3.67
2023-03-18T17:26:51.560Z,4.23
2023-03-18T17:29:23.709Z,4.90
2023-03-18T17:31:51.760Z,4.50
2023-03-18T17:34:20.099Z,6.77
2023-03-18T17:36:47.893Z,10.33
2023-03-18T17:39:15.680Z,12.70
2023-03-18T17:41:43.260Z,31.20
2023-03-18T17:44:36.915Z,15.67
2023-03-18T17:47:05.019Z,12.60
2023-03-18T17:49:32.456Z,12.37
2023-03-18T17:52:00.764Z,11.17
2023-03-18T17:54:31.501Z,11.33
2023-03-18T17:56:58.837Z,11.47
2023-03-18T17:59:27.514Z,12.20
2023-03-18T18:01:54.911Z,11.23
2023-03-18T18:04:23.283Z,12.73
2023-03-18T18:06:51.332Z,10.50
2023-03-18T18:09:19.325Z,9.40
2023-03-18T18:11:48.544Z,10.07
2023-03-18T18:14:16.437Z,8.90
2023-03-18T18:16:43.776Z,7.00
2023-03-18T18:19:11.937Z,3.17
2023-03-18T18:21:39.808Z,3.77
2023-03-18T18:24:15.146Z,5.37
2023-03-18T18:26:42.482Z,7.27
2023-03-18T18:29:12.835Z,7.60
2023-03-18T18:31:40.654Z,8.93
2023-03-18T18:34:08.749Z,9.07
2023-03-18T18:36:36.837Z,7.23
2023-03-18T18:39:05.626Z,12.50
2023-03-18T18:41:33.512Z,10.43
2023-03-18T18:44:00.821Z,7.27
2023-03-18T18:46:29.255Z,8.07
2023-03-18T18:48:56.603Z,8.53
2023-03-18T18:51:24.952Z,8.67
2023-03-18T18:53:53.818Z,18.70
2023-03-18T18:56:34.039Z,9.40
2023-03-18T18:59:05.143Z,9.33
2023-03-18T19:01:33.210Z,8.47
2023-03-18T19:04:02.648Z,10.03
2023-03-18T19:06:31.644Z,10.60
2023-03-18T19:09:00.249Z,12.57
2023-03-18T19:11:28.689Z,13.13
2023-03-18T19:14:06.589Z,15.13
2023-03-18T19:16:34.923Z,15.33
2023-03-18T19:19:03.020Z,14.50
2023-03-18T19:21:30.363Z,15.13
2023-03-18T19:23:58.326Z,14.90
2023-03-18T19:26:25.794Z,14.70
2023-03-18T19:28:58.821Z,15.13
2023-03-18T19:31:30.256Z,14.60
2023-03-18T19:33:59.369Z,22.52
2023-03-18T19:36:32.215Z,26.33
2023-03-18T19:39:01.540Z,16.30
2023-03-18T19:41:29.675Z,24.08
2023-03-18T19:44:06.322Z,18.20
2023-03-18T19:46:37.622Z,17.40
2023-03-18T19:49:24.534Z,17.53
2023-03-18T19:51:52.643Z,17.87
2023-03-18T19:54:23.960Z,17.10
2023-03-18T19:56:58.286Z,14.80
2023-03-18T19:59:33.514Z,15.43
2023-03-18T20:02:04.014Z,14.67
2023-03-18T20:04:31.845Z,14.70
2023-03-18T20:06:59.335Z,13.57
2023-03-18T20:09:28.466Z,12.50
2023-03-18T20:11:59.760Z,16.50
2023-03-18T20:14:30.109Z,14.20
2023-03-18T20:17:05.860Z,19.20
2023-03-18T20:19:33.756Z,16.03
2023-03-18T20:22:02.049Z,15.33
2023-03-18T20:24:30.171Z,16.80
2023-03-18T20:26:58.367Z,17.10
2023-03-18T20:29:26.869Z,18.00
2023-03-18T20:31:54.558Z,19.53
2023-03-18T20:34:23.418Z,18.80
2023-03-18T20:36:52.275Z,18.10
2023-03-18T20:39:21.676Z,17.70
2023-03-18T20:41:49.246Z,17.43
2023-03-18T20:44:17.513Z,19.17
2023-03-18T20:46:45.560Z,18.83
2023-03-18T20:49:14.492Z,20.30
2023-03-18T20:51:42.367Z,19.50
2023-03-18T20:54:18.949Z,20.07
2023-03-18T20:56:47.917Z,22.53
2023-03-18T20:59:16.110Z,23.00
2023-03-18T21:01:44.042Z,23.93
2023-03-18T21:04:16.724Z,27.67
2023-03-18T21:06:44.585Z,25.33
2023-03-18T21:09:14.149Z,26.23
2023-03-18T21:11:41.985Z,27.67
2023-03-18T21:14:14.988Z,28.87
2023-03-18T21:16:43.721Z,28.00
2023-03-18T21:19:12.660Z,30.20
2023-03-18T21:21:41.991Z,26.30
2023-03-18T21:24:26.152Z,25.93
2023-03-18T21:27:04.141Z,25.67
2023-03-18T21:29:33.332Z,26.80
2023-03-18T21:32:02.777Z,25.77
2023-03-18T21:34:31.401Z,27.17
2023-03-18T21:36:58.886Z,29.37
2023-03-18T21:39:27.422Z,27.77
2023-03-18T21:41:55.061Z,29.70
2023-03-18T21:44:23.389Z,25.93
2023-03-18T21:46:50.651Z,27.77
2023-03-18T21:49:17.953Z,28.70
2023-03-18T21:51:45.664Z,25.20
2023-03-18T21:54:22.701Z,25.20
2023-03-18T21:56:50.046Z,23.93
2023-03-18T21:59:17.395Z,23.13
2023-03-18T22:01:44.841Z,23.87
2023-03-18T22:04:12.297Z,24.73
2023-03-18T22:06:39.891Z,26.07
2023-03-18T22:09:07.509Z,23.93
2023-03-18T22:11:34.879Z,25.17
2023-03-18T22:14:02.518Z,26.43
2023-03-18T22:16:29.909Z,22.53
2023-03-18T22:18:57.235Z,24.00
2023-03-18T22:21:28.399Z,24.83
2023-03-18T22:23:58.024Z,25.33
2023-03-18T22:26:25.647Z,28.20
2023-03-18T22:28:52.893Z,24.70
2023-03-18T22:31:27.369Z,23.33
2023-03-18T22:33:55.026Z,25.90
2023-03-18T22:36:22.722Z,25.70
2023-03-18T22:38:50.326Z,29.77
2023-03-18T22:41:25.432Z,27.27
2023-03-18T22:43:53.317Z,25.30
2023-03-18T22:46:20.684Z,27.77
2023-03-18T22:48:48.072Z,24.67
2023-03-18T22:51:26.992Z,24.03
2023-03-18T22:53:58.296Z,27.50
2023-03-18T22:56:25.622Z,26.57
2023-03-18T22:58:52.995Z,27.73
2023-03-18T23:01:21.665Z,28.33
2023-03-18T23:03:49.349Z,32.10
2023-03-18T23:06:23.627Z,32.10
2023-03-18T23:08:51.053Z,42.47
2023-03-18T23:11:18.459Z,45.47
2023-03-18T23:13:49.721Z,51.00
2023-03-18T23:16:20.269Z,47.53
2023-03-18T23:18:48.021Z,50.23
2023-03-18T23:21:22.317Z,43.23
2023-03-18T23:23:49.768Z,39.73
2023-03-18T23:26:17.438Z,43.10
2023-03-18T23:28:45.566Z,43.70
2023-03-18T23:31:14.224Z,40.13
2023-03-18T23:33:41.999Z,38.13
2023-03-18T23:36:09.591Z,41.33
2023-03-18T23:38:37.781Z,36.07
2023-03-18T23:41:06.039Z,36.27
2023-03-18T23:43:33.354Z,35.60
2023-03-18T23:46:01.779Z,37.73
2023-03-18T23:48:29.106Z,35.47
2023-03-18T23:50:56.591Z,39.00
2023-03-18T23:53:23.881Z,38.20
2023-03-18T23:55:51.269Z,32.80
2023-03-18T23:58:18.606Z,32.77
